sensor_id;sensor_type;location;lat;lon;timestamp;pressure;altitude;pressure_sealevel;temperature
29423;BMP180;16399;51.686;8.684;2023-02-15T00:02:38;101247.00;;;2.80
29423;BMP180;16399;51.686;8.684;2023-02-15T00:05:40;101247.00;;;2.70
29423;BMP180;16399;51.686;8.684;2023-02-15T00:08:44;101244.00;;;2.70
29423;BMP180;16399;51.686;8.684;2023-02-15T00:11:46;101249.00;;;2.70
29423;BMP180;16399;51.686;8.684;2023-02-15T00:14:52;101240.00;;;2.70
29423;BMP180;16399;51.686;8.684;2023-02-15T00:17:54;101249.00;;;2.60
29423;BMP180;16399;51.686;8.684;2023-02-15T00:20:56;101244.00;;;2.60
29423;BMP180;16399;51.686;8.684;2023-02-15T00:24:00;101241.00;;;2.60
29423;BMP180;16399;51.686;8.684;2023-02-15T00:27:03;101235.00;;;2.60
29423;BMP180;16399;51.686;8.684;2023-02-15T00:30:06;101236.00;;;2.50
29423;BMP180;16399;51.686;8.684;2023-02-15T00:33:09;101231.00;;;2.40
29423;BMP180;16399;51.686;8.684;2023-02-15T00:36:11;101231.00;;;2.40
29423;BMP180;16399;51.686;8.684;2023-02-15T00:39:14;101241.00;;;2.30
29423;BMP180;16399;51.686;8.684;2023-02-15T00:42:17;101225.00;;;2.30
29423;BMP180;16399;51.686;8.684;2023-02-15T00:45:19;101223.00;;;2.30
29423;BMP180;16399;51.686;8.684;2023-02-15T00:48:22;101224.00;;;2.30
29423;BMP180;16399;51.686;8.684;2023-02-15T00:51:24;101224.00;;;2.30
29423;BMP180;16399;51.686;8.684;2023-02-15T00:54:27;101218.00;;;2.30
29423;BMP180;16399;51.686;8.684;2023-02-15T00:57:29;101209.00;;;2.30
29423;BMP180;16399;51.686;8.684;2023-02-15T01:00:32;101216.00;;;2.30
29423;BMP180;16399;51.686;8.684;2023-02-15T01:03:34;101215.00;;;2.30
29423;BMP180;16399;51.686;8.684;2023-02-15T01:06:37;101219.00;;;2.30
29423;BMP180;16399;51.686;8.684;2023-02-15T01:09:39;101205.00;;;2.30
29423;BMP180;16399;51.686;8.684;2023-02-15T01:12:41;101208.00;;;2.30
29423;BMP180;16399;51.686;8.684;2023-02-15T01:15:44;101212.00;;;2.30
29423;BMP180;16399;51.686;8.684;2023-02-15T01:18:46;101210.00;;;2.30
29423;BMP180;16399;51.686;8.684;2023-02-15T01:21:48;101210.00;;;2.20
29423;BMP180;16399;51.686;8.684;2023-02-15T01:24:51;101191.00;;;2.20
29423;BMP180;16399;51.686;8.684;2023-02-15T01:27:53;101204.00;;;2.20
29423;BMP180;16399;51.686;8.684;2023-02-15T01:30:55;101203.00;;;2.20
29423;BMP180;16399;51.686;8.684;2023-02-15T01:33:58;101197.00;;;2.20
29423;BMP180;16399;51.686;8.684;2023-02-15T01:37:00;101200.00;;;2.20
29423;BMP180;16399;51.686;8.684;2023-02-15T01:40:04;101189.00;;;2.20
29423;BMP180;16399;51.686;8.684;2023-02-15T01:43:11;101183.00;;;2.10
29423;BMP180;16399;51.686;8.684;2023-02-15T01:46:16;101191.00;;;2.10
29423;BMP180;16399;51.686;8.684;2023-02-15T01:49:21;101183.00;;;2.00
29423;BMP180;16399;51.686;8.684;2023-02-15T01:52:25;101185.00;;;2.00
29423;BMP180;16399;51.686;8.684;2023-02-15T01:55:36;101179.00;;;2.00
29423;BMP180;16399;51.686;8.684;2023-02-15T01:58:34;101184.00;;;1.90
29423;BMP180;16399;51.686;8.684;2023-02-15T02:01:37;101181.00;;;1.90
29423;BMP180;16399;51.686;8.684;2023-02-15T02:04:48;101179.00;;;1.90
29423;BMP180;16399;51.686;8.684;2023-02-15T02:07:52;101168.00;;;1.80
29423;BMP180;16399;51.686;8.684;2023-02-15T02:10:55;101175.00;;;1.80
29423;BMP180;16399;51.686;8.684;2023-02-15T02:13:58;101177.00;;;1.80
29423;BMP180;16399;51.686;8.684;2023-02-15T02:17:22;101170.00;;;1.70
29423;BMP180;16399;51.686;8.684;2023-02-15T02:20:41;101165.00;;;1.70
29423;BMP180;16399;51.686;8.684;2023-02-15T02:30:57;101153.00;;;1.60
29423;BMP180;16399;51.686;8.684;2023-02-15T02:44:13;101143.00;;;1.50
29423;BMP180;16399;51.686;8.684;2023-02-15T02:47:40;101132.00;;;1.50
29423;BMP180;16399;51.686;8.684;2023-02-15T02:50:42;101140.00;;;1.50
29423;BMP180;16399;51.686;8.684;2023-02-15T02:53:44;101131.00;;;1.40
29423;BMP180;16399;51.686;8.684;2023-02-15T02:56:48;101129.00;;;1.40
29423;BMP180;16399;51.686;8.684;2023-02-15T02:59:50;101131.00;;;1.40
29423;BMP180;16399;51.686;8.684;2023-02-15T03:03:00;101131.00;;;1.40
29423;BMP180;16399;51.686;8.684;2023-02-15T03:06:16;101125.00;;;1.40
29423;BMP180;16399;51.686;8.684;2023-02-15T03:09:22;101126.00;;;1.40
29423;BMP180;16399;51.686;8.684;2023-02-15T03:12:30;101136.00;;;1.30
29423;BMP180;16399;51.686;8.684;2023-02-15T03:15:35;101125.00;;;1.30
29423;BMP180;16399;51.686;8.684;2023-02-15T03:19:02;101118.00;;;1.30
29423;BMP180;16399;51.686;8.684;2023-02-15T03:22:11;101115.00;;;1.30
29423;BMP180;16399;51.686;8.684;2023-02-15T03:25:31;101110.00;;;1.30
29423;BMP180;16399;51.686;8.684;2023-02-15T03:28:42;101117.00;;;1.30
29423;BMP180;16399;51.686;8.684;2023-02-15T03:31:43;101118.00;;;1.20
29423;BMP180;16399;51.686;8.684;2023-02-15T03:34:47;101113.00;;;1.20
29423;BMP180;16399;51.686;8.684;2023-02-15T03:37:51;101113.00;;;1.20
29423;BMP180;16399;51.686;8.684;2023-02-15T03:40:56;101116.00;;;1.20
29423;BMP180;16399;51.686;8.684;2023-02-15T03:44:14;101119.00;;;1.20
29423;BMP180;16399;51.686;8.684;2023-02-15T03:47:19;101117.00;;;1.10
29423;BMP180;16399;51.686;8.684;2023-02-15T03:50:27;101110.00;;;1.10
29423;BMP180;16399;51.686;8.684;2023-02-15T03:53:48;101108.00;;;1.10
29423;BMP180;16399;51.686;8.684;2023-02-15T03:56:51;101111.00;;;1.10
29423;BMP180;16399;51.686;8.684;2023-02-15T03:59:56;101119.00;;;1.10
29423;BMP180;16399;51.686;8.684;2023-02-15T04:03:29;101120.00;;;1.10
29423;BMP180;16399;51.686;8.684;2023-02-15T04:06:30;101106.00;;;1.10
29423;BMP180;16399;51.686;8.684;2023-02-15T04:09:33;101110.00;;;1.10
29423;BMP180;16399;51.686;8.684;2023-02-15T04:12:53;101104.00;;;1.10
29423;BMP180;16399;51.686;8.684;2023-02-15T04:15:56;101108.00;;;1.10
29423;BMP180;16399;51.686;8.684;2023-02-15T04:19:04;101105.00;;;1.10
29423;BMP180;16399;51.686;8.684;2023-02-15T04:22:25;101095.00;;;1.00
29423;BMP180;16399;51.686;8.684;2023-02-15T04:25:45;101093.00;;;1.00
29423;BMP180;16399;51.686;8.684;2023-02-15T04:28:47;101087.00;;;1.00
29423;BMP180;16399;51.686;8.684;2023-02-15T04:31:50;101090.00;;;1.00
29423;BMP180;16399;51.686;8.684;2023-02-15T04:34:53;101093.00;;;1.00
29423;BMP180;16399;51.686;8.684;2023-02-15T04:37:55;101086.00;;;1.00
29423;BMP180;16399;51.686;8.684;2023-02-15T04:40:58;101083.00;;;1.00
29423;BMP180;16399;51.686;8.684;2023-02-15T04:44:00;101086.00;;;0.90
29423;BMP180;16399;51.686;8.684;2023-02-15T04:47:03;101072.00;;;0.90
29423;BMP180;16399;51.686;8.684;2023-02-15T04:50:06;101094.00;;;0.90
29423;BMP180;16399;51.686;8.684;2023-02-15T04:53:08;101075.00;;;0.90
29423;BMP180;16399;51.686;8.684;2023-02-15T04:56:10;101064.00;;;0.90
29423;BMP180;16399;51.686;8.684;2023-02-15T04:59:13;101067.00;;;0.90
29423;BMP180;16399;51.686;8.684;2023-02-15T05:02:15;101072.00;;;0.90
29423;BMP180;16399;51.686;8.684;2023-02-15T05:05:17;101061.00;;;0.90
29423;BMP180;16399;51.686;8.684;2023-02-15T05:08:20;101062.00;;;0.80
29423;BMP180;16399;51.686;8.684;2023-02-15T05:11:22;101058.00;;;0.80
29423;BMP180;16399;51.686;8.684;2023-02-15T05:14:24;101061.00;;;0.80
29423;BMP180;16399;51.686;8.684;2023-02-15T05:17:26;101067.00;;;0.80
29423;BMP180;16399;51.686;8.684;2023-02-15T05:20:29;101060.00;;;0.80
29423;BMP180;16399;51.686;8.684;2023-02-15T05:23:31;101060.00;;;0.80
29423;BMP180;16399;51.686;8.684;2023-02-15T05:26:33;101066.00;;;0.80
29423;BMP180;16399;51.686;8.684;2023-02-15T05:29:54;101061.00;;;0.80
29423;BMP180;16399;51.686;8.684;2023-02-15T05:32:56;101055.00;;;0.80
29423;BMP180;16399;51.686;8.684;2023-02-15T05:35:58;101050.00;;;0.80
29423;BMP180;16399;51.686;8.684;2023-02-15T05:39:01;101060.00;;;0.80
29423;BMP180;16399;51.686;8.684;2023-02-15T05:42:05;101062.00;;;0.80
29423;BMP180;16399;51.686;8.684;2023-02-15T05:45:07;101061.00;;;0.80
29423;BMP180;16399;51.686;8.684;2023-02-15T05:48:10;101052.00;;;0.80
29423;BMP180;16399;51.686;8.684;2023-02-15T05:51:13;101045.00;;;0.80
29423;BMP180;16399;51.686;8.684;2023-02-15T05:54:17;101051.00;;;0.70
29423;BMP180;16399;51.686;8.684;2023-02-15T05:57:19;101053.00;;;0.70
29423;BMP180;16399;51.686;8.684;2023-02-15T06:00:21;101052.00;;;0.70
29423;BMP180;16399;51.686;8.684;2023-02-15T06:03:24;101053.00;;;0.70
29423;BMP180;16399;51.686;8.684;2023-02-15T06:06:28;101044.00;;;0.70
29423;BMP180;16399;51.686;8.684;2023-02-15T06:09:31;101050.00;;;0.70
29423;BMP180;16399;51.686;8.684;2023-02-15T06:12:33;101057.00;;;0.70
29423;BMP180;16399;51.686;8.684;2023-02-15T06:15:35;101047.00;;;0.70
29423;BMP180;16399;51.686;8.684;2023-02-15T06:18:37;101036.00;;;0.70
29423;BMP180;16399;51.686;8.684;2023-02-15T06:21:40;101044.00;;;0.70
29423;BMP180;16399;51.686;8.684;2023-02-15T06:24:42;101040.00;;;0.70
29423;BMP180;16399;51.686;8.684;2023-02-15T06:27:44;101050.00;;;0.70
29423;BMP180;16399;51.686;8.684;2023-02-15T06:30:47;101056.00;;;0.70
29423;BMP180;16399;51.686;8.684;2023-02-15T06:33:49;101055.00;;;0.70
29423;BMP180;16399;51.686;8.684;2023-02-15T06:36:51;101039.00;;;0.70
29423;BMP180;16399;51.686;8.684;2023-02-15T06:39:53;101033.00;;;0.70
29423;BMP180;16399;51.686;8.684;2023-02-15T06:42:56;101045.00;;;0.70
29423;BMP180;16399;51.686;8.684;2023-02-15T06:45:58;101042.00;;;0.70
29423;BMP180;16399;51.686;8.684;2023-02-15T06:49:00;101041.00;;;0.70
29423;BMP180;16399;51.686;8.684;2023-02-15T06:52:03;101042.00;;;0.70
29423;BMP180;16399;51.686;8.684;2023-02-15T06:55:06;101052.00;;;0.70
29423;BMP180;16399;51.686;8.684;2023-02-15T06:58:08;101040.00;;;0.70
29423;BMP180;16399;51.686;8.684;2023-02-15T07:01:11;101049.00;;;0.80
29423;BMP180;16399;51.686;8.684;2023-02-15T07:04:13;101041.00;;;0.80
29423;BMP180;16399;51.686;8.684;2023-02-15T07:07:16;101039.00;;;0.80
29423;BMP180;16399;51.686;8.684;2023-02-15T07:10:18;101032.00;;;0.90
29423;BMP180;16399;51.686;8.684;2023-02-15T07:13:20;101040.00;;;0.90
29423;BMP180;16399;51.686;8.684;2023-02-15T07:16:23;101041.00;;;0.90
29423;BMP180;16399;51.686;8.684;2023-02-15T07:19:25;101044.00;;;1.00
29423;BMP180;16399;51.686;8.684;2023-02-15T07:22:27;101039.00;;;1.00
29423;BMP180;16399;51.686;8.684;2023-02-15T07:25:30;101035.00;;;1.00
29423;BMP180;16399;51.686;8.684;2023-02-15T07:28:34;101026.00;;;1.10
29423;BMP180;16399;51.686;8.684;2023-02-15T07:31:36;101037.00;;;1.20
29423;BMP180;16399;51.686;8.684;2023-02-15T07:34:39;101031.00;;;1.20
29423;BMP180;16399;51.686;8.684;2023-02-15T07:37:42;101024.00;;;1.30
29423;BMP180;16399;51.686;8.684;2023-02-15T07:40:45;101040.00;;;1.40
29423;BMP180;16399;51.686;8.684;2023-02-15T07:43:47;101026.00;;;1.40
29423;BMP180;16399;51.686;8.684;2023-02-15T07:46:49;101016.00;;;1.50
29423;BMP180;16399;51.686;8.684;2023-02-15T07:49:52;101026.00;;;1.60
29423;BMP180;16399;51.686;8.684;2023-02-15T07:52:54;101012.00;;;1.70
29423;BMP180;16399;51.686;8.684;2023-02-15T07:56:00;101010.00;;;1.80
29423;BMP180;16399;51.686;8.684;2023-02-15T07:59:03;101001.00;;;1.90
29423;BMP180;16399;51.686;8.684;2023-02-15T08:02:10;101006.00;;;1.90
29423;BMP180;16399;51.686;8.684;2023-02-15T08:05:12;101000.00;;;2.10
29423;BMP180;16399;51.686;8.684;2023-02-15T08:08:15;100994.00;;;2.20
29423;BMP180;16399;51.686;8.684;2023-02-15T08:11:34;100998.00;;;2.40
29423;BMP180;16399;51.686;8.684;2023-02-15T08:14:41;101000.00;;;2.60
29423;BMP180;16399;51.686;8.684;2023-02-15T08:17:43;100995.00;;;2.70
29423;BMP180;16399;51.686;8.684;2023-02-15T08:20:49;100981.00;;;3.00
29423;BMP180;16399;51.686;8.684;2023-02-15T08:23:52;100974.00;;;3.20
29423;BMP180;16399;51.686;8.684;2023-02-15T08:26:55;100958.00;;;3.40
29423;BMP180;16399;51.686;8.684;2023-02-15T08:29:57;100963.00;;;3.60
29423;BMP180;16399;51.686;8.684;2023-02-15T08:33:00;100967.00;;;3.70
29423;BMP180;16399;51.686;8.684;2023-02-15T08:36:06;100969.00;;;3.90
29423;BMP180;16399;51.686;8.684;2023-02-15T08:39:09;100959.00;;;4.00
29423;BMP180;16399;51.686;8.684;2023-02-15T08:42:11;100964.00;;;4.20
29423;BMP180;16399;51.686;8.684;2023-02-15T08:45:13;100951.00;;;4.40
29423;BMP180;16399;51.686;8.684;2023-02-15T08:48:16;100955.00;;;4.60
29423;BMP180;16399;51.686;8.684;2023-02-15T08:51:21;100940.00;;;4.70
29423;BMP180;16399;51.686;8.684;2023-02-15T08:54:24;100944.00;;;4.70
29423;BMP180;16399;51.686;8.684;2023-02-15T08:57:27;100948.00;;;4.80
29423;BMP180;16399;51.686;8.684;2023-02-15T09:00:30;100938.00;;;4.80
29423;BMP180;16399;51.686;8.684;2023-02-15T09:03:32;100936.00;;;4.90
29423;BMP180;16399;51.686;8.684;2023-02-15T09:06:38;100906.00;;;4.90
29423;BMP180;16399;51.686;8.684;2023-02-15T09:09:41;100932.00;;;5.00
29423;BMP180;16399;51.686;8.684;2023-02-15T09:12:43;100934.00;;;5.10
29423;BMP180;16399;51.686;8.684;2023-02-15T09:15:45;100929.00;;;5.10
29423;BMP180;16399;51.686;8.684;2023-02-15T09:18:48;100922.00;;;5.20
29423;BMP180;16399;51.686;8.684;2023-02-15T09:21:51;100915.00;;;5.30
29423;BMP180;16399;51.686;8.684;2023-02-15T09:24:53;100919.00;;;5.40
29423;BMP180;16399;51.686;8.684;2023-02-15T09:27:55;100908.00;;;5.50
29423;BMP180;16399;51.686;8.684;2023-02-15T09:31:06;100915.00;;;5.60
29423;BMP180;16399;51.686;8.684;2023-02-15T09:34:08;100918.00;;;5.70
29423;BMP180;16399;51.686;8.684;2023-02-15T09:37:11;100904.00;;;5.80
29423;BMP180;16399;51.686;8.684;2023-02-15T09:40:15;100914.00;;;6.00
29423;BMP180;16399;51.686;8.684;2023-02-15T09:43:25;100910.00;;;6.10
29423;BMP180;16399;51.686;8.684;2023-02-15T09:53:29;100907.00;;;6.50
29423;BMP180;16399;51.686;8.684;2023-02-15T09:56:53;100904.00;;;6.70
29423;BMP180;16399;51.686;8.684;2023-02-15T09:59:52;100900.00;;;6.80
29423;BMP180;16399;51.686;8.684;2023-02-15T10:02:58;100899.00;;;6.90
29423;BMP180;16399;51.686;8.684;2023-02-15T10:06:35;100899.00;;;7.00
29423;BMP180;16399;51.686;8.684;2023-02-15T10:09:42;100894.00;;;7.20
29423;BMP180;16399;51.686;8.684;2023-02-15T10:16:26;100889.00;;;7.40
29423;BMP180;16399;51.686;8.684;2023-02-15T10:19:37;100888.00;;;7.60
29423;BMP180;16399;51.686;8.684;2023-02-15T10:22:42;100888.00;;;7.70
29423;BMP180;16399;51.686;8.684;2023-02-15T10:25:50;100886.00;;;7.80
29423;BMP180;16399;51.686;8.684;2023-02-15T10:28:56;100884.00;;;7.90
29423;BMP180;16399;51.686;8.684;2023-02-15T10:35:24;100883.00;;;8.10
29423;BMP180;16399;51.686;8.684;2023-02-15T10:38:49;100878.00;;;8.30
29423;BMP180;16399;51.686;8.684;2023-02-15T10:45:37;100876.00;;;8.70
29423;BMP180;16399;51.686;8.684;2023-02-15T10:49:23;100871.00;;;8.80
29423;BMP180;16399;51.686;8.684;2023-02-15T10:55:34;100866.00;;;9.20
29423;BMP180;16399;51.686;8.684;2023-02-15T11:05:19;100855.00;;;9.70
29423;BMP180;16399;51.686;8.684;2023-02-15T11:08:20;100853.00;;;9.90
29423;BMP180;16399;51.686;8.684;2023-02-15T11:11:35;100851.00;;;10.20
29423;BMP180;16399;51.686;8.684;2023-02-15T11:14:58;100839.00;;;10.40
29423;BMP180;16399;51.686;8.684;2023-02-15T11:21:33;100851.00;;;10.70
29423;BMP180;16399;51.686;8.684;2023-02-15T11:24:41;100836.00;;;10.90
29423;BMP180;16399;51.686;8.684;2023-02-15T11:27:44;100843.00;;;11.00
29423;BMP180;16399;51.686;8.684;2023-02-15T11:30:50;100843.00;;;11.10
29423;BMP180;16399;51.686;8.684;2023-02-15T11:33:59;100843.00;;;11.10
29423;BMP180;16399;51.686;8.684;2023-02-15T11:37:08;100835.00;;;11.30
29423;BMP180;16399;51.686;8.684;2023-02-15T11:40:19;100836.00;;;11.50
29423;BMP180;16399;51.686;8.684;2023-02-15T11:43:29;100833.00;;;11.70
29423;BMP180;16399;51.686;8.684;2023-02-15T11:46:32;100823.00;;;11.80
29423;BMP180;16399;51.686;8.684;2023-02-15T11:49:35;100832.00;;;11.90
29423;BMP180;16399;51.686;8.684;2023-02-15T11:52:38;100823.00;;;11.90
29423;BMP180;16399;51.686;8.684;2023-02-15T11:55:48;100815.00;;;11.80
29423;BMP180;16399;51.686;8.684;2023-02-15T12:02:17;100812.00;;;11.90
29423;BMP180;16399;51.686;8.684;2023-02-15T12:05:21;100817.00;;;11.90
29423;BMP180;16399;51.686;8.684;2023-02-15T12:08:25;100819.00;;;12.00
29423;BMP180;16399;51.686;8.684;2023-02-15T12:11:39;100807.00;;;12.10
29423;BMP180;16399;51.686;8.684;2023-02-15T12:14:46;100803.00;;;12.00
29423;BMP180;16399;51.686;8.684;2023-02-15T12:17:52;100813.00;;;12.00
29423;BMP180;16399;51.686;8.684;2023-02-15T12:20:51;100810.00;;;12.00
29423;BMP180;16399;51.686;8.684;2023-02-15T12:24:09;100800.00;;;12.10
29423;BMP180;16399;51.686;8.684;2023-02-15T12:30:32;100794.00;;;12.20
29423;BMP180;16399;51.686;8.684;2023-02-15T12:33:41;100790.00;;;12.40
29423;BMP180;16399;51.686;8.684;2023-02-15T12:36:47;100791.00;;;12.50
29423;BMP180;16399;51.686;8.684;2023-02-15T12:39:57;100784.00;;;12.70
29423;BMP180;16399;51.686;8.684;2023-02-15T12:42:59;100769.00;;;12.70
29423;BMP180;16399;51.686;8.684;2023-02-15T12:46:24;100774.00;;;12.70
29423;BMP180;16399;51.686;8.684;2023-02-15T12:49:29;100769.00;;;12.90
29423;BMP180;16399;51.686;8.684;2023-02-15T12:52:31;100766.00;;;12.90
29423;BMP180;16399;51.686;8.684;2023-02-15T12:55:34;100761.00;;;13.10
29423;BMP180;16399;51.686;8.684;2023-02-15T12:58:38;100756.00;;;13.10
29423;BMP180;16399;51.686;8.684;2023-02-15T13:01:41;100752.00;;;13.10
29423;BMP180;16399;51.686;8.684;2023-02-15T13:04:48;100746.00;;;13.10
29423;BMP180;16399;51.686;8.684;2023-02-15T13:11:15;100740.00;;;13.10
29423;BMP180;16399;51.686;8.684;2023-02-15T13:14:29;100734.00;;;13.10
29423;BMP180;16399;51.686;8.684;2023-02-15T13:17:32;100742.00;;;13.00
29423;BMP180;16399;51.686;8.684;2023-02-15T13:20:37;100727.00;;;13.10
29423;BMP180;16399;51.686;8.684;2023-02-15T13:23:44;100728.00;;;13.20
29423;BMP180;16399;51.686;8.684;2023-02-15T13:26:47;100725.00;;;13.30
29423;BMP180;16399;51.686;8.684;2023-02-15T13:29:57;100736.00;;;13.50
29423;BMP180;16399;51.686;8.684;2023-02-15T13:33:06;100725.00;;;13.60
29423;BMP180;16399;51.686;8.684;2023-02-15T13:39:55;100721.00;;;13.90
29423;BMP180;16399;51.686;8.684;2023-02-15T13:43:00;100714.00;;;14.00
29423;BMP180;16399;51.686;8.684;2023-02-15T13:46:13;100720.00;;;14.00
29423;BMP180;16399;51.686;8.684;2023-02-15T13:49:27;100711.00;;;14.10
29423;BMP180;16399;51.686;8.684;2023-02-15T13:52:26;100710.00;;;14.10
29423;BMP180;16399;51.686;8.684;2023-02-15T13:55:50;100716.00;;;14.20
29423;BMP180;16399;51.686;8.684;2023-02-15T13:59:20;100710.00;;;14.20
29423;BMP180;16399;51.686;8.684;2023-02-15T14:02:51;100704.00;;;14.10
29423;BMP180;16399;51.686;8.684;2023-02-15T14:06:00;100699.00;;;14.00
29423;BMP180;16399;51.686;8.684;2023-02-15T14:09:09;100710.00;;;13.90
29423;BMP180;16399;51.686;8.684;2023-02-15T14:15:32;100699.00;;;13.80
29423;BMP180;16399;51.686;8.684;2023-02-15T14:18:48;100690.00;;;13.80
29423;BMP180;16399;51.686;8.684;2023-02-15T14:25:41;100689.00;;;13.60
29423;BMP180;16399;51.686;8.684;2023-02-15T14:32:04;100692.00;;;13.50
29423;BMP180;16399;51.686;8.684;2023-02-15T14:35:12;100692.00;;;13.40
29423;BMP180;16399;51.686;8.684;2023-02-15T14:47:37;100683.00;;;13.30
29423;BMP180;16399;51.686;8.684;2023-02-15T14:50:42;100686.00;;;13.20
29423;BMP180;16399;51.686;8.684;2023-02-15T14:53:45;100681.00;;;13.10
29423;BMP180;16399;51.686;8.684;2023-02-15T15:03:28;100680.00;;;12.90
29423;BMP180;16399;51.686;8.684;2023-02-15T15:06:32;100683.00;;;12.80
29423;BMP180;16399;51.686;8.684;2023-02-15T15:09:38;100686.00;;;12.60
29423;BMP180;16399;51.686;8.684;2023-02-15T15:12:41;100680.00;;;12.50
29423;BMP180;16399;51.686;8.684;2023-02-15T15:15:47;100685.00;;;12.30
29423;BMP180;16399;51.686;8.684;2023-02-15T15:18:50;100676.00;;;12.20
29423;BMP180;16399;51.686;8.684;2023-02-15T15:21:53;100684.00;;;12.10
29423;BMP180;16399;51.686;8.684;2023-02-15T15:25:00;100684.00;;;11.90
29423;BMP180;16399;51.686;8.684;2023-02-15T15:28:05;100673.00;;;11.90
29423;BMP180;16399;51.686;8.684;2023-02-15T15:31:26;100680.00;;;11.80
29423;BMP180;16399;51.686;8.684;2023-02-15T15:45:11;100687.00;;;11.20
29423;BMP180;16399;51.686;8.684;2023-02-15T15:51:30;100678.00;;;10.80
29423;BMP180;16399;51.686;8.684;2023-02-15T15:54:33;100694.00;;;10.70
29423;BMP180;16399;51.686;8.684;2023-02-15T15:57:41;100678.00;;;10.50
29423;BMP180;16399;51.686;8.684;2023-02-15T16:01:02;100675.00;;;10.30
29423;BMP180;16399;51.686;8.684;2023-02-15T16:04:00;100682.00;;;10.20
29423;BMP180;16399;51.686;8.684;2023-02-15T16:10:28;100676.00;;;9.90
29423;BMP180;16399;51.686;8.684;2023-02-15T16:13:33;100674.00;;;9.70
29423;BMP180;16399;51.686;8.684;2023-02-15T16:16:36;100678.00;;;9.50
29423;BMP180;16399;51.686;8.684;2023-02-15T16:19:42;100687.00;;;9.40
29423;BMP180;16399;51.686;8.684;2023-02-15T16:22:46;100675.00;;;9.20
29423;BMP180;16399;51.686;8.684;2023-02-15T16:29:18;100695.00;;;8.90
29423;BMP180;16399;51.686;8.684;2023-02-15T16:32:25;100696.00;;;8.70
29423;BMP180;16399;51.686;8.684;2023-02-15T16:35:28;100691.00;;;8.60
29423;BMP180;16399;51.686;8.684;2023-02-15T16:41:48;100695.00;;;8.30
29423;BMP180;16399;51.686;8.684;2023-02-15T16:45:08;100703.00;;;8.20
29423;BMP180;16399;51.686;8.684;2023-02-15T16:48:20;100699.00;;;8.00
29423;BMP180;16399;51.686;8.684;2023-02-15T16:51:24;100703.00;;;7.90
29423;BMP180;16399;51.686;8.684;2023-02-15T16:54:29;100710.00;;;7.80
29423;BMP180;16399;51.686;8.684;2023-02-15T16:57:36;100701.00;;;7.70
29423;BMP180;16399;51.686;8.684;2023-02-15T17:00:37;100708.00;;;7.50
29423;BMP180;16399;51.686;8.684;2023-02-15T17:03:42;100696.00;;;7.50
29423;BMP180;16399;51.686;8.684;2023-02-15T17:06:59;100716.00;;;7.40
29423;BMP180;16399;51.686;8.684;2023-02-15T17:10:02;100707.00;;;7.20
29423;BMP180;16399;51.686;8.684;2023-02-15T17:13:13;100707.00;;;7.10
29423;BMP180;16399;51.686;8.684;2023-02-15T17:16:27;100700.00;;;7.00
29423;BMP180;16399;51.686;8.684;2023-02-15T17:19:32;100707.00;;;6.90
29423;BMP180;16399;51.686;8.684;2023-02-15T17:22:36;100712.00;;;6.80
29423;BMP180;16399;51.686;8.684;2023-02-15T17:25:40;100697.00;;;6.70
29423;BMP180;16399;51.686;8.684;2023-02-15T17:28:49;100715.00;;;6.70
29423;BMP180;16399;51.686;8.684;2023-02-15T17:31:54;100708.00;;;6.60
29423;BMP180;16399;51.686;8.684;2023-02-15T17:35:18;100715.00;;;6.50
29423;BMP180;16399;51.686;8.684;2023-02-15T17:38:20;100721.00;;;6.40
29423;BMP180;16399;51.686;8.684;2023-02-15T17:41:28;100711.00;;;6.30
29423;BMP180;16399;51.686;8.684;2023-02-15T17:44:30;100719.00;;;6.20
29423;BMP180;16399;51.686;8.684;2023-02-15T17:47:32;100722.00;;;6.20
29423;BMP180;16399;51.686;8.684;2023-02-15T17:50:35;100709.00;;;6.10
29423;BMP180;16399;51.686;8.684;2023-02-15T17:53:38;100717.00;;;6.10
29423;BMP180;16399;51.686;8.684;2023-02-15T17:56:40;100728.00;;;6.00
29423;BMP180;16399;51.686;8.684;2023-02-15T17:59:42;100718.00;;;5.90
29423;BMP180;16399;51.686;8.684;2023-02-15T18:03:03;100721.00;;;5.90
29423;BMP180;16399;51.686;8.684;2023-02-15T18:06:24;100725.00;;;5.80
29423;BMP180;16399;51.686;8.684;2023-02-15T18:09:44;100731.00;;;5.70
29423;BMP180;16399;51.686;8.684;2023-02-15T18:13:04;100723.00;;;5.60
29423;BMP180;16399;51.686;8.684;2023-02-15T18:16:16;100712.00;;;5.60
29423;BMP180;16399;51.686;8.684;2023-02-15T18:19:27;100719.00;;;5.50
29423;BMP180;16399;51.686;8.684;2023-02-15T18:22:27;100726.00;;;5.50
29423;BMP180;16399;51.686;8.684;2023-02-15T18:25:30;100715.00;;;5.40
29423;BMP180;16399;51.686;8.684;2023-02-15T18:28:32;100716.00;;;5.30
29423;BMP180;16399;51.686;8.684;2023-02-15T18:31:35;100725.00;;;5.30
29423;BMP180;16399;51.686;8.684;2023-02-15T18:34:39;100720.00;;;5.20
29423;BMP180;16399;51.686;8.684;2023-02-15T18:37:43;100724.00;;;5.20
29423;BMP180;16399;51.686;8.684;2023-02-15T18:40:45;100735.00;;;5.10
29423;BMP180;16399;51.686;8.684;2023-02-15T18:43:48;100723.00;;;5.10
29423;BMP180;16399;51.686;8.684;2023-02-15T18:46:51;100720.00;;;5.00
29423;BMP180;16399;51.686;8.684;2023-02-15T18:49:53;100716.00;;;5.00
29423;BMP180;16399;51.686;8.684;2023-02-15T18:52:55;100714.00;;;4.90
29423;BMP180;16399;51.686;8.684;2023-02-15T18:55:58;100713.00;;;4.90
29423;BMP180;16399;51.686;8.684;2023-02-15T18:59:00;100710.00;;;4.80
29423;BMP180;16399;51.686;8.684;2023-02-15T19:02:03;100712.00;;;4.80
29423;BMP180;16399;51.686;8.684;2023-02-15T19:05:07;100715.00;;;4.70
29423;BMP180;16399;51.686;8.684;2023-02-15T19:08:18;100716.00;;;4.70
29423;BMP180;16399;51.686;8.684;2023-02-15T19:11:23;100727.00;;;4.60
29423;BMP180;16399;51.686;8.684;2023-02-15T19:14:27;100724.00;;;4.60
29423;BMP180;16399;51.686;8.684;2023-02-15T19:17:30;100721.00;;;4.60
29423;BMP180;16399;51.686;8.684;2023-02-15T19:20:40;100724.00;;;4.50
29423;BMP180;16399;51.686;8.684;2023-02-15T19:23:50;100719.00;;;4.50
29423;BMP180;16399;51.686;8.684;2023-02-15T19:26:47;100721.00;;;4.40
29423;BMP180;16399;51.686;8.684;2023-02-15T19:29:50;100720.00;;;4.40
29423;BMP180;16399;51.686;8.684;2023-02-15T19:32:52;100719.00;;;4.40
29423;BMP180;16399;51.686;8.684;2023-02-15T19:35:55;100723.00;;;4.40
29423;BMP180;16399;51.686;8.684;2023-02-15T19:38:57;100724.00;;;4.40
29423;BMP180;16399;51.686;8.684;2023-02-15T19:42:00;100725.00;;;4.30